sensor_id;sensor_type;location;lat;lon;timestamp;temperature;humidity
8988;DHT22;4529;51.360;12.474;2022-11-20T00:04:59;-1.10;99.90
8988;DHT22;4529;51.360;12.474;2022-11-20T00:10:04;-1.20;99.90
8988;DHT22;4529;51.360;12.474;2022-11-20T00:15:08;-1.20;99.90
8988;DHT22;4529;51.360;12.474;2022-11-20T00:20:11;-1.30;99.90
8988;DHT22;4529;51.360;12.474;2022-11-20T00:25:15;-1.50;99.90
8988;DHT22;4529;51.360;12.474;2022-11-20T00:30:19;-1.50;99.90
8988;DHT22;4529;51.360;12.474;2022-11-20T00:35:22;-1.40;99.90
8988;DHT22;4529;51.360;12.474;2022-11-20T00:40:26;-1.30;99.90
8988;DHT22;4529;51.360;12.474;2022-11-20T00:45:30;-1.30;99.90
8988;DHT22;4529;51.360;12.474;2022-11-20T00:50:34;-1.30;99.90
8988;DHT22;4529;51.360;12.474;2022-11-20T00:55:39;-1.40;99.90
8988;DHT22;4529;51.360;12.474;2022-11-20T01:00:43;-1.50;99.90
8988;DHT22;4529;51.360;12.474;2022-11-20T01:05:47;-1.50;99.90
8988;DHT22;4529;51.360;12.474;2022-11-20T01:10:50;-1.50;99.90
8988;DHT22;4529;51.360;12.474;2022-11-20T01:15:54;-1.50;99.90
8988;DHT22;4529;51.360;12.474;2022-11-20T01:21:05;-1.60;99.90
8988;DHT22;4529;51.360;12.474;2022-11-20T01:26:09;-1.60;99.90
8988;DHT22;4529;51.360;12.474;2022-11-20T01:31:12;-1.50;99.90
8988;DHT22;4529;51.360;12.474;2022-11-20T01:36:15;-1.60;99.90
8988;DHT22;4529;51.360;12.474;2022-11-20T01:41:18;-1.70;99.90
8988;DHT22;4529;51.360;12.474;2022-11-20T01:46:21;-1.60;99.90
8988;DHT22;4529;51.360;12.474;2022-11-20T01:51:35;-1.60;99.90
8988;DHT22;4529;51.360;12.474;2022-11-20T01:56:38;-1.30;99.90
8988;DHT22;4529;51.360;12.474;2022-11-20T02:01:42;-1.00;99.90
8988;DHT22;4529;51.360;12.474;2022-11-20T02:06:57;-0.90;99.90
8988;DHT22;4529;51.360;12.474;2022-11-20T02:11:58;-0.90;99.90
8988;DHT22;4529;51.360;12.474;2022-11-20T02:17:02;-0.80;99.90
8988;DHT22;4529;51.360;12.474;2022-11-20T02:22:12;-0.70;99.90
8988;DHT22;4529;51.360;12.474;2022-11-20T02:27:13;-0.40;99.90
8988;DHT22;4529;51.360;12.474;2022-11-20T02:32:24;-0.40;99.90
8988;DHT22;4529;51.360;12.474;2022-11-20T02:37:27;-0.50;99.90
8988;DHT22;4529;51.360;12.474;2022-11-20T02:42:29;-0.50;99.90
8988;DHT22;4529;51.360;12.474;2022-11-20T02:47:32;-0.70;99.90
8988;DHT22;4529;51.360;12.474;2022-11-20T02:52:36;-0.90;99.90
8988;DHT22;4529;51.360;12.474;2022-11-20T02:57:39;-1.10;99.90
8988;DHT22;4529;51.360;12.474;2022-11-20T03:02:43;-1.30;99.90
8988;DHT22;4529;51.360;12.474;2022-11-20T03:07:47;-1.50;99.90
8988;DHT22;4529;51.360;12.474;2022-11-20T03:12:54;-1.60;99.90
8988;DHT22;4529;51.360;12.474;2022-11-20T03:17:58;-1.60;99.90
8988;DHT22;4529;51.360;12.474;2022-11-20T03:23:02;-1.80;99.90
8988;DHT22;4529;51.360;12.474;2022-11-20T03:28:06;-1.90;99.90
8988;DHT22;4529;51.360;12.474;2022-11-20T03:33:10;-1.90;99.90
8988;DHT22;4529;51.360;12.474;2022-11-20T03:38:14;-1.90;99.90
8988;DHT22;4529;51.360;12.474;2022-11-20T03:43:18;-1.90;99.90
8988;DHT22;4529;51.360;12.474;2022-11-20T03:48:22;-1.90;99.90
8988;DHT22;4529;51.360;12.474;2022-11-20T03:53:27;-1.90;99.90
8988;DHT22;4529;51.360;12.474;2022-11-20T03:58:32;-1.90;99.90
8988;DHT22;4529;51.360;12.474;2022-11-20T04:03:36;-2.00;99.90
8988;DHT22;4529;51.360;12.474;2022-11-20T04:08:39;-2.00;99.90
8988;DHT22;4529;51.360;12.474;2022-11-20T04:13:45;-2.10;99.90
8988;DHT22;4529;51.360;12.474;2022-11-20T04:18:46;-2.10;99.90
8988;DHT22;4529;51.360;12.474;2022-11-20T04:23:49;-2.10;99.90
8988;DHT22;4529;51.360;12.474;2022-11-20T04:28:53;-2.20;99.90
8988;DHT22;4529;51.360;12.474;2022-11-20T04:34:01;-2.20;99.90
8988;DHT22;4529;51.360;12.474;2022-11-20T04:39:05;-2.20;99.90
8988;DHT22;4529;51.360;12.474;2022-11-20T04:44:07;-2.30;99.90
8988;DHT22;4529;51.360;12.474;2022-11-20T04:49:11;-2.40;99.90
8988;DHT22;4529;51.360;12.474;2022-11-20T04:54:14;-2.30;99.90
8988;DHT22;4529;51.360;12.474;2022-11-20T04:59:18;-2.40;99.90
8988;DHT22;4529;51.360;12.474;2022-11-20T05:04:21;-2.40;99.90
8988;DHT22;4529;51.360;12.474;2022-11-20T05:09:25;-2.40;99.90
8988;DHT22;4529;51.360;12.474;2022-11-20T05:14:28;-2.30;99.90
8988;DHT22;4529;51.360;12.474;2022-11-20T05:19:32;-2.30;99.90
8988;DHT22;4529;51.360;12.474;2022-11-20T05:24:35;-2.40;99.90
8988;DHT22;4529;51.360;12.474;2022-11-20T05:29:39;-2.50;99.90
8988;DHT22;4529;51.360;12.474;2022-11-20T05:34:43;-2.50;99.90
8988;DHT22;4529;51.360;12.474;2022-11-20T05:39:47;-2.30;99.90
8988;DHT22;4529;51.360;12.474;2022-11-20T05:44:50;-2.30;99.90
8988;DHT22;4529;51.360;12.474;2022-11-20T05:49:54;-2.00;99.90
8988;DHT22;4529;51.360;12.474;2022-11-20T05:54:57;-1.80;99.90
8988;DHT22;4529;51.360;12.474;2022-11-20T06:00:01;-1.70;99.90
8988;DHT22;4529;51.360;12.474;2022-11-20T06:05:04;-1.60;99.90
8988;DHT22;4529;51.360;12.474;2022-11-20T06:10:08;-1.50;99.90
8988;DHT22;4529;51.360;12.474;2022-11-20T06:15:12;-1.60;99.90
8988;DHT22;4529;51.360;12.474;2022-11-20T06:20:16;-1.60;99.90
8988;DHT22;4529;51.360;12.474;2022-11-20T06:25:20;-1.70;99.90
8988;DHT22;4529;51.360;12.474;2022-11-20T06:30:24;-1.80;99.90
8988;DHT22;4529;51.360;12.474;2022-11-20T06:35:28;-1.90;99.90
8988;DHT22;4529;51.360;12.474;2022-11-20T06:40:33;-1.90;99.90
8988;DHT22;4529;51.360;12.474;2022-11-20T06:45:37;-1.70;99.90
8988;DHT22;4529;51.360;12.474;2022-11-20T06:50:41;-1.50;99.90
8988;DHT22;4529;51.360;12.474;2022-11-20T06:55:48;-1.50;99.90
8988;DHT22;4529;51.360;12.474;2022-11-20T07:00:52;-1.60;99.90
8988;DHT22;4529;51.360;12.474;2022-11-20T07:05:57;-1.80;99.90
8988;DHT22;4529;51.360;12.474;2022-11-20T07:11:01;-1.90;99.90
8988;DHT22;4529;51.360;12.474;2022-11-20T07:16:05;-1.90;99.90
8988;DHT22;4529;51.360;12.474;2022-11-20T07:21:10;-1.90;99.90
8988;DHT22;4529;51.360;12.474;2022-11-20T07:26:13;-1.80;99.90
8988;DHT22;4529;51.360;12.474;2022-11-20T07:31:17;-1.90;99.90
8988;DHT22;4529;51.360;12.474;2022-11-20T07:36:21;-1.40;99.90
8988;DHT22;4529;51.360;12.474;2022-11-20T07:41:25;-1.20;99.90
8988;DHT22;4529;51.360;12.474;2022-11-20T07:46:29;-1.00;99.90
8988;DHT22;4529;51.360;12.474;2022-11-20T07:51:33;-1.00;99.90
8988;DHT22;4529;51.360;12.474;2022-11-20T07:56:37;-1.20;99.90
8988;DHT22;4529;51.360;12.474;2022-11-20T08:01:41;-1.20;99.90
8988;DHT22;4529;51.360;12.474;2022-11-20T08:06:44;-1.20;99.90
8988;DHT22;4529;51.360;12.474;2022-11-20T08:11:48;-1.20;99.90
8988;DHT22;4529;51.360;12.474;2022-11-20T08:16:51;-1.10;99.90
8988;DHT22;4529;51.360;12.474;2022-11-20T08:21:54;-1.00;99.90
8988;DHT22;4529;51.360;12.474;2022-11-20T08:26:58;-0.90;99.90
8988;DHT22;4529;51.360;12.474;2022-11-20T08:32:01;-0.60;99.90
8988;DHT22;4529;51.360;12.474;2022-11-20T08:37:05;-0.40;99.90
8988;DHT22;4529;51.360;12.474;2022-11-20T08:42:08;-0.40;99.90
8988;DHT22;4529;51.360;12.474;2022-11-20T08:47:12;-0.40;99.90
8988;DHT22;4529;51.360;12.474;2022-11-20T08:52:15;-0.30;99.90
8988;DHT22;4529;51.360;12.474;2022-11-20T08:57:19;-0.20;99.90
8988;DHT22;4529;51.360;12.474;2022-11-20T09:02:23;-0.20;99.90
8988;DHT22;4529;51.360;12.474;2022-11-20T09:07:26;-0.20;99.90
8988;DHT22;4529;51.360;12.474;2022-11-20T09:12:30;-0.10;99.90
8988;DHT22;4529;51.360;12.474;2022-11-20T09:17:33;-0.10;99.90
8988;DHT22;4529;51.360;12.474;2022-11-20T09:22:39;0.00;99.90
8988;DHT22;4529;51.360;12.474;2022-11-20T09:27:42;0.10;99.90
8988;DHT22;4529;51.360;12.474;2022-11-20T09:32:46;0.20;99.90
8988;DHT22;4529;51.360;12.474;2022-11-20T09:37:49;0.20;99.90
8988;DHT22;4529;51.360;12.474;2022-11-20T09:48:32;0.50;99.90
8988;DHT22;4529;51.360;12.474;2022-11-20T09:53:46;0.70;99.90
8988;DHT22;4529;51.360;12.474;2022-11-20T09:58:47;0.70;99.90
8988;DHT22;4529;51.360;12.474;2022-11-20T10:09:08;1.10;99.90
8988;DHT22;4529;51.360;12.474;2022-11-20T10:14:24;1.40;99.90
8988;DHT22;4529;51.360;12.474;2022-11-20T10:20:08;1.50;99.90
8988;DHT22;4529;51.360;12.474;2022-11-20T10:25:15;1.50;99.90
8988;DHT22;4529;51.360;12.474;2022-11-20T10:30:18;1.60;99.90
8988;DHT22;4529;51.360;12.474;2022-11-20T10:35:26;1.50;99.90
8988;DHT22;4529;51.360;12.474;2022-11-20T10:45:43;1.40;99.90
8988;DHT22;4529;51.360;12.474;2022-11-20T10:50:56;1.40;99.90
8988;DHT22;4529;51.360;12.474;2022-11-20T10:55:55;1.50;99.90
8988;DHT22;4529;51.360;12.474;2022-11-20T11:01:14;1.50;99.90
8988;DHT22;4529;51.360;12.474;2022-11-20T11:06:14;1.60;99.90
8988;DHT22;4529;51.360;12.474;2022-11-20T11:11:23;1.60;99.90
8988;DHT22;4529;51.360;12.474;2022-11-20T11:16:26;1.60;99.90
8988;DHT22;4529;51.360;12.474;2022-11-20T11:21:30;1.50;99.90
8988;DHT22;4529;51.360;12.474;2022-11-20T11:26:33;1.40;99.90
8988;DHT22;4529;51.360;12.474;2022-11-20T11:31:37;1.40;99.90
8988;DHT22;4529;51.360;12.474;2022-11-20T11:36:41;1.40;99.90
8988;DHT22;4529;51.360;12.474;2022-11-20T11:41:45;1.50;99.90
8988;DHT22;4529;51.360;12.474;2022-11-20T11:46:54;1.50;99.90
8988;DHT22;4529;51.360;12.474;2022-11-20T11:52:12;1.70;99.90
8988;DHT22;4529;51.360;12.474;2022-11-20T11:57:21;1.60;99.90
8988;DHT22;4529;51.360;12.474;2022-11-20T12:08:09;1.80;99.90
8988;DHT22;4529;51.360;12.474;2022-11-20T12:13:24;1.70;99.90
8988;DHT22;4529;51.360;12.474;2022-11-20T12:18:24;1.60;99.90
8988;DHT22;4529;51.360;12.474;2022-11-20T12:23:53;1.60;99.90
8988;DHT22;4529;51.360;12.474;2022-11-20T12:34:30;1.70;99.90
8988;DHT22;4529;51.360;12.474;2022-11-20T12:39:40;1.60;99.90
8988;DHT22;4529;51.360;12.474;2022-11-20T12:44:57;1.60;99.90
8988;DHT22;4529;51.360;12.474;2022-11-20T12:55:36;1.70;99.90
8988;DHT22;4529;51.360;12.474;2022-11-20T13:00:38;1.70;99.90
8988;DHT22;4529;51.360;12.474;2022-11-20T13:17:10;2.10;99.90
8988;DHT22;4529;51.360;12.474;2022-11-20T13:22:09;2.20;99.90
8988;DHT22;4529;51.360;12.474;2022-11-20T13:32:18;2.60;99.90
8988;DHT22;4529;51.360;12.474;2022-11-20T13:37:36;2.60;99.90
8988;DHT22;4529;51.360;12.474;2022-11-20T13:42:45;2.70;99.90
8988;DHT22;4529;51.360;12.474;2022-11-20T13:47:48;2.80;99.90
8988;DHT22;4529;51.360;12.474;2022-11-20T13:52:56;2.80;99.90
8988;DHT22;4529;51.360;12.474;2022-11-20T14:03:11;2.90;99.90
8988;DHT22;4529;51.360;12.474;2022-11-20T14:08:14;3.00;99.90
8988;DHT22;4529;51.360;12.474;2022-11-20T14:13:20;3.20;99.90
8988;DHT22;4529;51.360;12.474;2022-11-20T14:18:25;3.10;99.90
8988;DHT22;4529;51.360;12.474;2022-11-20T14:23:27;3.20;99.90
8988;DHT22;4529;51.360;12.474;2022-11-20T14:28:30;3.10;99.90
8988;DHT22;4529;51.360;12.474;2022-11-20T14:33:33;3.20;99.90
8988;DHT22;4529;51.360;12.474;2022-11-20T14:38:37;3.20;99.90
8988;DHT22;4529;51.360;12.474;2022-11-20T14:43:40;3.20;99.90
8988;DHT22;4529;51.360;12.474;2022-11-20T14:48:50;3.20;99.90
8988;DHT22;4529;51.360;12.474;2022-11-20T14:53:50;3.20;99.90
8988;DHT22;4529;51.360;12.474;2022-11-20T14:58:57;3.20;99.90
8988;DHT22;4529;51.360;12.474;2022-11-20T15:04:07;3.10;99.90
8988;DHT22;4529;51.360;12.474;2022-11-20T15:09:13;3.10;99.90
8988;DHT22;4529;51.360;12.474;2022-11-20T15:14:15;3.00;99.90
8988;DHT22;4529;51.360;12.474;2022-11-20T15:19:23;3.00;99.90
8988;DHT22;4529;51.360;12.474;2022-11-20T15:24:25;3.00;99.90
8988;DHT22;4529;51.360;12.474;2022-11-20T15:29:29;2.90;99.90
8988;DHT22;4529;51.360;12.474;2022-11-20T15:34:32;2.90;99.90
8988;DHT22;4529;51.360;12.474;2022-11-20T15:39:35;2.80;99.90
8988;DHT22;4529;51.360;12.474;2022-11-20T15:44:40;2.80;99.90
8988;DHT22;4529;51.360;12.474;2022-11-20T15:49:44;2.70;99.90
8988;DHT22;4529;51.360;12.474;2022-11-20T15:54:48;2.70;99.90
8988;DHT22;4529;51.360;12.474;2022-11-20T15:59:51;2.70;99.90
8988;DHT22;4529;51.360;12.474;2022-11-20T16:04:55;2.60;99.90
8988;DHT22;4529;51.360;12.474;2022-11-20T16:09:58;2.60;99.90
8988;DHT22;4529;51.360;12.474;2022-11-20T16:15:02;2.50;99.90
8988;DHT22;4529;51.360;12.474;2022-11-20T16:20:09;2.50;99.90
8988;DHT22;4529;51.360;12.474;2022-11-20T16:25:10;2.50;99.90
8988;DHT22;4529;51.360;12.474;2022-11-20T16:30:14;2.40;99.90
8988;DHT22;4529;51.360;12.474;2022-11-20T16:35:17;2.40;99.90
8988;DHT22;4529;51.360;12.474;2022-11-20T16:40:21;2.40;99.90
8988;DHT22;4529;51.360;12.474;2022-11-20T16:45:25;2.30;99.90
8988;DHT22;4529;51.360;12.474;2022-11-20T16:50:28;2.20;99.90
8988;DHT22;4529;51.360;12.474;2022-11-20T16:55:31;2.30;99.90
8988;DHT22;4529;51.360;12.474;2022-11-20T17:00:38;2.30;99.90
8988;DHT22;4529;51.360;12.474;2022-11-20T17:05:41;2.20;99.90
8988;DHT22;4529;51.360;12.474;2022-11-20T17:10:44;2.20;99.90
8988;DHT22;4529;51.360;12.474;2022-11-20T17:15:48;2.20;99.90
8988;DHT22;4529;51.360;12.474;2022-11-20T17:20:51;2.20;99.90
8988;DHT22;4529;51.360;12.474;2022-11-20T17:26:07;2.10;99.90
8988;DHT22;4529;51.360;12.474;2022-11-20T17:31:11;2.10;99.90
8988;DHT22;4529;51.360;12.474;2022-11-20T17:36:14;2.10;99.90
8988;DHT22;4529;51.360;12.474;2022-11-20T17:41:20;2.10;99.90
8988;DHT22;4529;51.360;12.474;2022-11-20T17:46:24;2.00;99.90
8988;DHT22;4529;51.360;12.474;2022-11-20T17:51:30;1.80;99.90
8988;DHT22;4529;51.360;12.474;2022-11-20T17:56:33;1.50;99.90
8988;DHT22;4529;51.360;12.474;2022-11-20T18:01:36;1.30;99.90
8988;DHT22;4529;51.360;12.474;2022-11-20T18:06:40;1.20;99.90
8988;DHT22;4529;51.360;12.474;2022-11-20T18:11:43;1.10;99.90
8988;DHT22;4529;51.360;12.474;2022-11-20T18:16:48;1.00;99.90
8988;DHT22;4529;51.360;12.474;2022-11-20T18:21:51;0.80;99.90
8988;DHT22;4529;51.360;12.474;2022-11-20T18:26:54;0.80;99.90
8988;DHT22;4529;51.360;12.474;2022-11-20T18:31:58;0.70;99.90
8988;DHT22;4529;51.360;12.474;2022-11-20T18:37:01;0.60;99.90
8988;DHT22;4529;51.360;12.474;2022-11-20T18:42:05;0.40;99.90
8988;DHT22;4529;51.360;12.474;2022-11-20T18:47:10;0.30;99.90
8988;DHT22;4529;51.360;12.474;2022-11-20T18:52:13;0.30;99.90
8988;DHT22;4529;51.360;12.474;2022-11-20T18:57:21;0.30;99.90
8988;DHT22;4529;51.360;12.474;2022-11-20T19:02:24;0.30;99.90
8988;DHT22;4529;51.360;12.474;2022-11-20T19:07:27;0.20;99.90
8988;DHT22;4529;51.360;12.474;2022-11-20T19:12:31;0.10;99.90
8988;DHT22;4529;51.360;12.474;2022-11-20T19:17:35;0.10;99.90
8988;DHT22;4529;51.360;12.474;2022-11-20T19:22:39;0.10;99.90
8988;DHT22;4529;51.360;12.474;2022-11-20T19:27:44;0.10;99.90
8988;DHT22;4529;51.360;12.474;2022-11-20T19:32:48;0.10;99.90
8988;DHT22;4529;51.360;12.474;2022-11-20T19:37:52;0.10;99.90
8988;DHT22;4529;51.360;12.474;2022-11-20T19:42:55;0.10;99.90
8988;DHT22;4529;51.360;12.474;2022-11-20T19:47:59;0.10;99.90
8988;DHT22;4529;51.360;12.474;2022-11-20T19:53:02;0.10;99.90
8988;DHT22;4529;51.360;12.474;2022-11-20T19:58:06;0.10;99.90
8988;DHT22;4529;51.360;12.474;2022-11-20T20:03:11;0.10;99.90
8988;DHT22;4529;51.360;12.474;2022-11-20T20:08:15;0.10;99.90
8988;DHT22;4529;51.360;12.474;2022-11-20T20:13:18;0.10;99.90
8988;DHT22;4529;51.360;12.474;2022-11-20T20:18:22;0.10;99.90
8988;DHT22;4529;51.360;12.474;2022-11-20T20:23:25;0.10;99.90
8988;DHT22;4529;51.360;12.474;2022-11-20T20:28:29;0.10;99.90
8988;DHT22;4529;51.360;12.474;2022-11-20T20:33:32;0.10;99.90
8988;DHT22;4529;51.360;12.474;2022-11-20T20:38:36;0.20;99.90
8988;DHT22;4529;51.360;12.474;2022-11-20T20:43:39;0.10;99.90
8988;DHT22;4529;51.360;12.474;2022-11-20T20:48:43;0.20;99.90
8988;DHT22;4529;51.360;12.474;2022-11-20T20:53:46;0.20;99.90
8988;DHT22;4529;51.360;12.474;2022-11-20T20:58:51;0.30;99.90
8988;DHT22;4529;51.360;12.474;2022-11-20T21:03:54;0.30;99.90
8988;DHT22;4529;51.360;12.474;2022-11-20T21:08:57;0.40;99.90
8988;DHT22;4529;51.360;12.474;2022-11-20T21:14:02;0.70;99.90
8988;DHT22;4529;51.360;12.474;2022-11-20T21:19:06;0.80;99.90
8988;DHT22;4529;51.360;12.474;2022-11-20T21:24:10;0.80;99.90
8988;DHT22;4529;51.360;12.474;2022-11-20T21:29:14;0.80;99.90
8988;DHT22;4529;51.360;12.474;2022-11-20T21:34:18;0.80;99.90
8988;DHT22;4529;51.360;12.474;2022-11-20T21:39:22;0.80;99.90
8988;DHT22;4529;51.360;12.474;2022-11-20T21:44:25;0.80;99.90
8988;DHT22;4529;51.360;12.474;2022-11-20T21:49:28;0.80;99.90
8988;DHT22;4529;51.360;12.474;2022-11-20T21:54:32;0.80;99.90
8988;DHT22;4529;51.360;12.474;2022-11-20T21:59:35;0.80;99.90
8988;DHT22;4529;51.360;12.474;2022-11-20T22:04:39;0.90;99.90
8988;DHT22;4529;51.360;12.474;2022-11-20T22:09:44;1.00;99.90
8988;DHT22;4529;51.360;12.474;2022-11-20T22:14:48;1.00;99.90
8988;DHT22;4529;51.360;12.474;2022-11-20T22:19:52;1.10;99.90
8988;DHT22;4529;51.360;12.474;2022-11-20T22:24:56;1.10;99.90
8988;DHT22;4529;51.360;12.474;2022-11-20T22:30:00;1.10;99.90
8988;DHT22;4529;51.360;12.474;2022-11-20T22:35:05;1.20;99.90
8988;DHT22;4529;51.360;12.474;2022-11-20T22:40:08;1.20;99.90
8988;DHT22;4529;51.360;12.474;2022-11-20T22:45:12;1.20;99.90
8988;DHT22;4529;51.360;12.474;2022-11-20T22:50:15;1.20;99.90
8988;DHT22;4529;51.360;12.474;2022-11-20T22:55:19;1.20;99.90
8988;DHT22;4529;51.360;12.474;2022-11-20T23:00:23;1.20;99.90
8988;DHT22;4529;51.360;12.474;2022-11-20T23:05:27;1.30;99.90
8988;DHT22;4529;51.360;12.474;2022-11-20T23:10:31;1.20;99.90
8988;DHT22;4529;51.360;12.474;2022-11-20T23:15:34;1.20;99.90
8988;DHT22;4529;51.360;12.474;2022-11-20T23:20:38;1.30;99.90
8988;DHT22;4529;51.360;12.474;2022-11-20T23:25:41;1.30;99.90
8988;DHT22;4529;51.360;12.474;2022-11-20T23:30:45;1.30;99.90
8988;DHT22;4529;51.360;12.474;2022-11-20T23:35:48;1.40;99.90
8988;DHT22;4529;51.360;12.474;2022-11-20T23:40:52;1.40;99.90
8988;DHT22;4529;51.360;12.474;2022-11-20T23:45:57;1.40;99.90
8988;DHT22;4529;51.360;12.474;2022-11-20T23:51:01;1.50;99.90
8988;DHT22;4529;51.360;12.474;2022-11-20T23:56:04;1.40;99.90
